createdAt,value
2023-04-15T00:02:00.051Z,46.26
2023-04-15T00:04:28.469Z,45.90
2023-04-15T00:06:57.802Z,45.74
2023-04-15T00:09:25.857Z,45.59
2023-04-15T00:11:54.495Z,45.63
2023-04-15T00:14:28.496Z,45.53
2023-04-15T00:16:57.600Z,45.59
2023-04-15T00:19:26.063Z,45.61
2023-04-15T00:21:58.942Z,45.57
2023-04-15T00:24:27.010Z,45.56
2023-04-15T00:26:55.052Z,45.34
2023-04-15T00:29:29.856Z,45.26
2023-04-15T00:31:58.729Z,45.27
2023-04-15T00:34:27.991Z,45.17
2023-04-15T00:36:56.147Z,44.96
2023-04-15T00:39:24.793Z,45.00
2023-04-15T00:41:53.242Z,44.69
2023-04-15T00:44:21.600Z,44.71
2023-04-15T00:46:51.371Z,44.69
2023-04-15T00:49:20.353Z,44.86
2023-04-15T00:51:51.800Z,45.22
2023-04-15T00:54:19.901Z,45.15
2023-04-15T00:56:48.166Z,45.16
2023-04-15T00:59:16.842Z,45.05
2023-04-15T01:01:45.088Z,45.14
2023-04-15T01:04:14.084Z,45.14
2023-04-15T01:06:42.365Z,45.32
2023-04-15T01:09:12.019Z,45.39
2023-04-15T01:11:40.668Z,45.44
2023-04-15T01:14:10.910Z,45.46
2023-04-15T01:16:40.026Z,45.59
2023-04-15T01:19:12.274Z,45.46
2023-04-15T01:21:41.183Z,45.40
2023-04-15T01:24:10.475Z,45.36
2023-04-15T01:26:39.441Z,45.50
2023-04-15T01:29:09.813Z,45.34
2023-04-15T01:31:38.045Z,45.11
2023-04-15T01:34:07.470Z,44.94
2023-04-15T01:36:35.767Z,44.82
2023-04-15T01:39:04.640Z,44.75
2023-04-15T01:41:32.974Z,44.36
2023-04-15T01:44:02.145Z,44.22
2023-04-15T01:46:30.824Z,44.28
2023-04-15T01:48:59.280Z,44.28
2023-04-15T01:51:30.856Z,44.40
2023-04-15T01:53:59.114Z,44.51
2023-04-15T01:56:27.140Z,44.35
2023-04-15T01:58:55.883Z,44.56
2023-04-15T02:01:24.085Z,44.42
2023-04-15T02:03:53.037Z,44.57
2023-04-15T02:06:21.336Z,44.37
2023-04-15T02:08:56.350Z,44.28
2023-04-15T02:11:25.716Z,44.37
2023-04-15T02:13:54.271Z,44.47
2023-04-15T02:16:22.346Z,44.27
2023-04-15T02:18:54.452Z,44.40
2023-04-15T02:21:22.802Z,44.50
2023-04-15T02:23:52.900Z,44.57
2023-04-15T02:26:23.488Z,44.60
2023-04-15T02:28:51.562Z,44.75
2023-04-15T02:31:19.807Z,44.74
2023-04-15T02:33:47.922Z,44.93
2023-04-15T02:36:16.267Z,44.78
2023-04-15T02:38:45.025Z,44.53
2023-04-15T02:41:17.477Z,44.50
2023-04-15T02:43:48.297Z,44.44
2023-04-15T02:46:17.064Z,44.26
2023-04-15T02:48:46.510Z,44.25
2023-04-15T02:51:16.222Z,44.29
2023-04-15T02:53:44.224Z,44.31
2023-04-15T02:56:16.012Z,44.08
2023-04-15T02:58:45.371Z,44.01
2023-04-15T03:01:13.864Z,44.13
2023-04-15T03:03:42.906Z,44.15
2023-04-15T03:06:11.846Z,44.24
2023-04-15T03:08:40.045Z,44.38
2023-04-15T03:11:08.595Z,44.60
2023-04-15T03:13:39.644Z,44.79
2023-04-15T03:16:14.744Z,44.84
2023-04-15T03:18:44.231Z,44.71
2023-04-15T03:21:12.445Z,44.61
2023-04-15T03:23:40.873Z,44.72
2023-04-15T03:26:09.430Z,44.66
2023-04-15T03:28:37.774Z,44.60
2023-04-15T03:31:08.350Z,44.80
2023-04-15T03:33:37.350Z,44.87
2023-04-15T03:36:06.107Z,44.96
2023-04-15T03:38:35.479Z,44.81
2023-04-15T03:41:03.811Z,44.97
2023-04-15T03:43:32.169Z,44.93
2023-04-15T03:46:01.925Z,44.98
2023-04-15T03:48:31.102Z,45.24
2023-04-15T03:51:01.406Z,45.29
2023-04-15T03:53:29.414Z,45.25
2023-04-15T03:55:57.577Z,45.38
2023-04-15T03:58:25.606Z,45.36
2023-04-15T04:00:54.977Z,45.24
2023-04-15T04:03:24.107Z,45.28
2023-04-15T04:05:53.921Z,45.02
2023-04-15T04:08:22.576Z,44.87
2023-04-15T04:10:50.823Z,44.70
2023-04-15T04:13:22.067Z,44.56
2023-04-15T04:16:04.800Z,44.66
2023-04-15T04:18:33.478Z,44.62
2023-04-15T04:21:01.670Z,44.39
2023-04-15T04:23:33.069Z,44.43
2023-04-15T04:26:01.402Z,44.45
2023-04-15T04:28:29.664Z,44.41
2023-04-15T04:30:58.506Z,44.30
2023-04-15T04:33:28.200Z,44.18
2023-04-15T04:35:56.255Z,44.16
2023-04-15T04:38:25.997Z,44.43
2023-04-15T04:40:54.175Z,44.47
2023-04-15T04:43:22.401Z,44.53
2023-04-15T04:45:50.945Z,44.58
2023-04-15T04:48:19.998Z,44.73
2023-04-15T04:50:48.252Z,44.75
2023-04-15T04:53:16.474Z,44.86
2023-04-15T04:55:45.142Z,44.90
2023-04-15T04:58:13.181Z,44.75
2023-04-15T05:00:42.974Z,44.80
2023-04-15T05:03:11.700Z,44.77
2023-04-15T05:05:41.289Z,44.53
2023-04-15T05:08:12.597Z,44.36
2023-04-15T05:10:41.958Z,44.23
2023-04-15T05:13:10.636Z,44.20
2023-04-15T05:15:41.571Z,44.43
2023-04-15T05:18:10.998Z,44.43
2023-04-15T05:20:40.485Z,44.73
2023-04-15T05:23:08.543Z,44.89
2023-04-15T05:25:36.957Z,44.82
2023-04-15T05:28:05.406Z,45.00
2023-04-15T05:30:33.571Z,44.96
2023-04-15T05:33:08.023Z,44.81
2023-04-15T05:35:36.274Z,44.89
2023-04-15T05:38:04.312Z,44.95
2023-04-15T05:40:32.359Z,44.81
2023-04-15T05:43:01.697Z,44.54
2023-04-15T05:45:33.774Z,44.44
2023-04-15T05:48:02.047Z,44.18
2023-04-15T05:50:30.775Z,44.41
2023-04-15T05:52:59.423Z,44.26
2023-04-15T05:55:27.955Z,43.96
2023-04-15T05:57:56.089Z,43.74
2023-04-15T06:00:24.226Z,44.12
2023-04-15T06:02:53.945Z,44.30
2023-04-15T06:05:22.190Z,44.66
2023-04-15T06:07:50.488Z,44.91
2023-04-15T06:10:19.047Z,44.86
2023-04-15T06:12:47.707Z,45.10
2023-04-15T06:15:17.266Z,44.84
2023-04-15T06:17:46.404Z,44.93
2023-04-15T06:20:16.681Z,44.63
2023-04-15T06:22:45.593Z,44.56
2023-04-15T06:25:14.250Z,44.72
2023-04-15T06:27:43.112Z,44.58
2023-04-15T06:30:12.172Z,44.85
2023-04-15T06:32:41.806Z,44.93
2023-04-15T06:35:10.346Z,45.20
2023-04-15T06:37:38.661Z,45.44
2023-04-15T06:40:08.528Z,45.34
2023-04-15T06:42:38.408Z,45.15
2023-04-15T06:45:08.722Z,44.93
2023-04-15T06:47:37.712Z,44.82
2023-04-15T06:50:06.770Z,44.74
2023-04-15T06:52:36.938Z,44.66
2023-04-15T06:55:05.814Z,44.59
2023-04-15T06:57:35.064Z,44.40
2023-04-15T07:00:06.018Z,44.27
2023-04-15T07:02:35.333Z,44.30
2023-04-15T07:05:04.822Z,44.40
2023-04-15T07:07:38.538Z,44.26
2023-04-15T07:10:08.753Z,44.33
2023-04-15T07:12:36.786Z,43.87
2023-04-15T07:15:06.937Z,43.44
2023-04-15T07:17:35.583Z,43.78
2023-04-15T07:20:05.851Z,43.75
2023-04-15T07:22:34.334Z,43.78
2023-04-15T07:25:04.345Z,43.74
2023-04-15T07:27:32.666Z,43.94
2023-04-15T07:30:01.022Z,43.90
2023-04-15T07:32:29.576Z,44.09
2023-04-15T07:34:58.526Z,44.04
2023-04-15T07:37:28.514Z,43.83
2023-04-15T07:39:57.605Z,43.96
2023-04-15T07:42:29.421Z,43.49
2023-04-15T07:44:57.754Z,43.38
2023-04-15T07:47:25.975Z,43.64
2023-04-15T07:49:57.644Z,44.02
2023-04-15T07:52:25.989Z,44.28
2023-04-15T07:54:54.259Z,44.01
2023-04-15T07:57:23.029Z,43.56
2023-04-15T07:59:51.349Z,43.22
2023-04-15T08:02:19.917Z,43.10
2023-04-15T08:04:48.916Z,42.55
2023-04-15T08:07:18.927Z,42.64
2023-04-15T08:09:47.268Z,42.61
2023-04-15T08:12:16.132Z,42.52
2023-04-15T08:14:53.608Z,42.53
2023-04-15T08:17:23.841Z,42.66
2023-04-15T08:19:53.921Z,42.92
2023-04-15T08:22:22.773Z,42.86
2023-04-15T08:24:58.116Z,42.66
2023-04-15T08:27:27.697Z,42.43
2023-04-15T08:29:58.635Z,42.35
2023-04-15T08:32:27.421Z,42.27
2023-04-15T08:34:58.116Z,41.97
2023-04-15T08:37:27.108Z,41.81
2023-04-15T08:39:55.134Z,41.93
2023-04-15T08:42:44.858Z,42.23
2023-04-15T08:45:13.506Z,41.82
2023-04-15T08:47:43.523Z,41.91
2023-04-15T08:50:11.922Z,41.66
2023-04-15T08:52:42.583Z,41.96
2023-04-15T08:55:10.758Z,41.85
2023-04-15T08:57:39.975Z,41.60
2023-04-15T09:00:10.513Z,41.08
2023-04-15T09:02:39.952Z,41.46
2023-04-15T09:05:08.835Z,41.73
2023-04-15T09:07:37.030Z,41.47
2023-04-15T09:10:06.894Z,41.44
2023-04-15T09:12:37.053Z,41.62
2023-04-15T09:15:06.216Z,41.93
2023-04-15T09:17:35.294Z,41.78
2023-04-15T09:20:10.940Z,41.97
2023-04-15T09:25:42.409Z,44.65
2023-04-15T09:28:10.195Z,42.65
2023-04-15T09:30:37.971Z,42.77
2023-04-15T09:33:07.971Z,43.00
2023-04-15T09:35:36.926Z,42.72
2023-04-15T09:38:09.112Z,42.48
2023-04-15T09:40:37.317Z,42.83
2023-04-15T09:43:05.504Z,42.74
2023-04-15T09:45:32.794Z,42.88
2023-04-15T09:48:15.003Z,42.79
2023-04-15T09:50:42.213Z,42.46
2023-04-15T09:53:16.408Z,42.29
2023-04-15T09:55:50.708Z,42.04
2023-04-15T09:58:25.794Z,42.49
2023-04-15T10:00:54.677Z,42.34
2023-04-15T10:03:24.039Z,42.26
2023-04-15T10:05:52.167Z,42.23
2023-04-15T10:08:21.038Z,42.42
2023-04-15T10:10:48.116Z,42.55
2023-04-15T10:13:21.689Z,42.72
2023-04-15T10:15:58.716Z,42.66
2023-04-15T10:18:28.141Z,43.00
2023-04-15T10:20:55.043Z,42.79
2023-04-15T10:23:22.468Z,42.93
2023-04-15T10:25:49.769Z,42.93
2023-04-15T10:28:16.966Z,42.86
2023-04-15T10:30:43.875Z,42.52
2023-04-15T10:33:10.684Z,42.83
2023-04-15T10:35:37.507Z,43.17
2023-04-15T10:38:39.907Z,43.12
2023-04-15T10:41:12.809Z,42.92
2023-04-15T10:43:39.906Z,42.72
2023-04-15T10:46:07.104Z,42.61
2023-04-15T10:48:33.756Z,42.96
2023-04-15T10:51:01.692Z,43.00
2023-04-15T10:53:29.449Z,43.38
2023-04-15T10:55:57.122Z,43.57
2023-04-15T10:58:25.198Z,43.50
2023-04-15T11:00:52.902Z,43.36
2023-04-15T11:03:37.228Z,43.40
2023-04-15T11:06:05.823Z,43.13
2023-04-15T11:09:02.228Z,43.29
2023-04-15T11:12:08.979Z,43.48
2023-04-15T11:14:44.382Z,43.49
2023-04-15T11:17:11.088Z,43.58
2023-04-15T11:19:38.310Z,43.50
2023-04-15T11:22:11.153Z,43.24
2023-04-15T11:24:47.906Z,42.94
2023-04-15T11:27:23.677Z,42.95
2023-04-15T11:29:52.635Z,43.13
2023-04-15T11:32:21.167Z,43.05
2023-04-15T11:34:48.474Z,43.25
2023-04-15T11:37:15.072Z,43.86
2023-04-15T11:39:42.189Z,44.12
2023-04-15T11:42:18.468Z,44.27
2023-04-15T11:44:45.329Z,44.03
2023-04-15T11:47:23.076Z,44.20
2023-04-15T11:57:32.592Z,43.45
2023-04-15T12:00:00.624Z,43.52
2023-04-15T12:02:33.430Z,44.07
2023-04-15T12:05:08.793Z,44.31
2023-04-15T12:07:59.658Z,44.74
2023-04-15T12:10:27.784Z,45.38
2023-04-15T12:12:56.755Z,45.51
2023-04-15T12:15:24.889Z,45.83
2023-04-15T12:17:55.191Z,46.10
2023-04-15T12:20:26.879Z,46.37
2023-04-15T12:23:05.613Z,47.06
2023-04-15T12:25:36.832Z,47.01
2023-04-15T12:28:11.437Z,47.32
2023-04-15T12:30:50.351Z,46.92
2023-04-15T12:33:23.306Z,46.84
2023-04-15T12:35:52.046Z,46.96
2023-04-15T12:38:20.079Z,46.80
2023-04-15T12:40:48.136Z,46.68
2023-04-15T12:43:16.650Z,46.30
2023-04-15T12:45:45.205Z,45.99
2023-04-15T12:48:13.410Z,45.73
2023-04-15T12:50:41.686Z,45.74
2023-04-15T12:53:10.374Z,45.63
2023-04-15T12:55:38.571Z,45.66
2023-04-15T12:58:06.724Z,45.78
2023-04-15T13:00:35.245Z,45.31
2023-04-15T13:03:06.248Z,45.70
2023-04-15T13:05:37.162Z,45.48
2023-04-15T13:08:06.216Z,45.37
2023-04-15T13:10:36.746Z,45.31
2023-04-15T13:13:05.481Z,45.22
2023-04-15T13:15:35.141Z,45.05
2023-04-15T13:18:03.317Z,45.01
2023-04-15T13:20:32.019Z,44.99
2023-04-15T13:23:00.669Z,44.95
2023-04-15T13:25:29.043Z,44.72
2023-04-15T13:27:57.938Z,44.73
2023-04-15T13:30:26.111Z,44.83
2023-04-15T13:32:54.781Z,44.86
2023-04-15T13:35:22.998Z,44.85
2023-04-15T13:37:51.153Z,44.79
2023-04-15T13:40:20.489Z,45.06
2023-04-15T13:42:48.826Z,45.30
2023-04-15T13:45:16.965Z,45.32
2023-04-15T13:47:45.538Z,45.28
2023-04-15T13:50:13.631Z,45.26
2023-04-15T13:52:42.268Z,45.21
2023-04-15T13:55:19.907Z,45.25
2023-04-15T13:57:50.705Z,45.19
2023-04-15T14:00:19.271Z,45.26
2023-04-15T14:02:47.519Z,45.58
2023-04-15T14:05:15.794Z,45.21
2023-04-15T14:07:45.535Z,45.18
2023-04-15T14:10:13.918Z,45.19
2023-04-15T14:12:42.979Z,45.49
2023-04-15T14:15:11.390Z,45.44
2023-04-15T14:17:39.489Z,45.49
2023-04-15T14:20:09.516Z,45.51
2023-04-15T14:22:38.378Z,45.15
2023-04-15T14:25:07.427Z,44.92
2023-04-15T14:27:37.215Z,45.01
2023-04-15T14:30:06.426Z,44.96
2023-04-15T14:32:34.522Z,44.87
2023-04-15T14:35:03.143Z,44.52
2023-04-15T14:37:31.488Z,44.62
2023-04-15T14:39:59.626Z,44.64
2023-04-15T14:42:27.755Z,44.44
2023-04-15T14:44:55.889Z,44.43
2023-04-15T14:47:24.266Z,44.18
2023-04-15T14:49:53.382Z,44.18
2023-04-15T14:52:21.462Z,44.34
2023-04-15T14:54:49.554Z,44.26
2023-04-15T14:57:17.772Z,44.30
2023-04-15T14:59:46.155Z,44.27
2023-04-15T15:02:17.360Z,44.19
2023-04-15T15:04:56.449Z,44.55
2023-04-15T15:07:24.687Z,44.54
2023-04-15T15:09:54.605Z,44.61
2023-04-15T15:12:23.843Z,44.56
2023-04-15T15:14:51.973Z,44.61
2023-04-15T15:17:20.039Z,44.63
2023-04-15T15:19:48.040Z,44.78
2023-04-15T15:22:16.092Z,44.64
2023-04-15T15:24:44.302Z,44.65
2023-04-15T15:27:13.060Z,44.63
2023-04-15T15:29:41.291Z,44.70
2023-04-15T15:32:09.524Z,44.94
2023-04-15T15:34:38.526Z,44.79
2023-04-15T15:37:07.115Z,44.90
2023-04-15T15:39:35.406Z,44.90
2023-04-15T15:42:03.796Z,45.11
2023-04-15T15:44:33.497Z,45.02
2023-04-15T15:47:02.700Z,45.03
2023-04-15T15:49:31.012Z,44.81
2023-04-15T15:51:59.018Z,44.88
2023-04-15T15:54:27.147Z,45.07
2023-04-15T15:56:55.272Z,45.57
2023-04-15T15:59:25.377Z,46.09
2023-04-15T16:01:53.995Z,46.88
2023-04-15T16:04:23.310Z,47.75
2023-04-15T16:06:51.715Z,48.21
2023-04-15T16:09:19.761Z,48.71
2023-04-15T16:11:47.878Z,49.01
2023-04-15T16:14:16.318Z,49.04
2023-04-15T16:16:44.509Z,49.13
2023-04-15T16:19:12.785Z,49.15
2023-04-15T16:21:40.816Z,48.92
2023-04-15T16:24:08.954Z,48.88
2023-04-15T16:26:37.269Z,48.67
2023-04-15T16:29:05.648Z,48.65
2023-04-15T16:31:35.714Z,48.61
2023-04-15T16:34:03.852Z,48.57
2023-04-15T16:36:34.338Z,48.53
2023-04-15T16:39:02.559Z,48.55
2023-04-15T16:41:32.577Z,48.78
2023-04-15T16:44:03.468Z,48.79
2023-04-15T16:46:31.962Z,48.78
2023-04-15T16:49:00.048Z,48.81
2023-04-15T16:51:30.563Z,48.78
2023-04-15T16:53:58.758Z,48.70
2023-04-15T16:56:27.213Z,48.62
2023-04-15T16:58:55.159Z,48.64
2023-04-15T17:01:23.457Z,48.77
2023-04-15T17:03:54.039Z,48.91
2023-04-15T17:06:23.857Z,48.86
2023-04-15T17:08:52.094Z,48.99
2023-04-15T17:11:20.540Z,49.17
2023-04-15T17:13:49.182Z,48.99
2023-04-15T17:16:21.099Z,48.83
2023-04-15T17:18:50.523Z,48.74
2023-04-15T17:21:18.722Z,48.71
2023-04-15T17:23:46.902Z,48.83
2023-04-15T17:26:15.683Z,48.77
2023-04-15T17:28:43.738Z,48.82
2023-04-15T17:31:12.367Z,48.87
2023-04-15T17:34:03.296Z,48.80
2023-04-15T17:36:28.908Z,48.96
2023-04-15T17:38:57.049Z,49.06
2023-04-15T17:41:25.582Z,49.15
2023-04-15T17:43:54.229Z,49.16
2023-04-15T17:46:22.405Z,49.35
2023-04-15T17:48:50.588Z,49.41
2023-04-15T17:51:18.936Z,49.66
2023-04-15T17:53:47.181Z,49.82
2023-04-15T17:56:15.394Z,50.04
2023-04-15T17:58:43.704Z,50.04
2023-04-15T18:01:11.666Z,50.23
2023-04-15T18:03:40.792Z,50.25
2023-04-15T18:06:09.268Z,50.51
2023-04-15T18:08:37.314Z,50.49
2023-04-15T18:11:06.482Z,50.66
2023-04-15T18:13:36.676Z,50.71
2023-04-15T18:16:05.583Z,50.66
2023-04-15T18:18:34.048Z,50.84
2023-04-15T18:21:02.206Z,51.07
2023-04-15T18:24:27.227Z,51.37
2023-04-15T18:27:14.392Z,51.57
2023-04-15T18:29:43.730Z,51.38
2023-04-15T18:32:11.862Z,51.19
2023-04-15T18:34:39.990Z,50.97
2023-04-15T18:37:08.221Z,51.19
2023-04-15T18:39:37.192Z,50.88
2023-04-15T18:42:05.451Z,51.05
2023-04-15T18:44:35.304Z,50.73
2023-04-15T18:47:03.670Z,50.69
2023-04-15T18:49:35.081Z,50.65
2023-04-15T18:52:04.292Z,50.59
2023-04-15T18:54:32.582Z,50.53
2023-04-15T18:57:01.105Z,50.63
2023-04-15T18:59:30.857Z,50.43
2023-04-15T19:02:00.311Z,50.39
2023-04-15T19:04:31.295Z,50.38
2023-04-15T19:06:59.609Z,50.32
2023-04-15T19:09:28.796Z,50.19
2023-04-15T19:11:57.752Z,49.98
2023-04-15T19:14:25.998Z,49.90
2023-04-15T19:16:54.300Z,49.96
2023-04-15T19:19:22.576Z,49.93
2023-04-15T19:21:51.081Z,49.89
2023-04-15T19:24:19.733Z,49.91
2023-04-15T19:26:49.938Z,49.89
2023-04-15T19:29:18.547Z,49.83
2023-04-15T19:32:43.485Z,49.69
2023-04-15T19:35:30.535Z,49.52
2023-04-15T19:37:58.683Z,49.45
2023-04-15T19:40:58.357Z,49.22
2023-04-15T19:43:27.240Z,49.17
2023-04-15T19:46:52.032Z,49.11
2023-04-15T19:49:39.304Z,49.07
2023-04-15T19:52:26.323Z,49.09
2023-04-15T19:54:54.350Z,49.21
2023-04-15T20:05:02.598Z,49.27
2023-04-15T20:07:31.788Z,49.18
2023-04-15T20:09:59.986Z,49.13
2023-04-15T20:12:49.233Z,49.29
2023-04-15T20:15:17.733Z,49.45
2023-04-15T20:17:47.784Z,49.33
2023-04-15T20:20:16.568Z,49.17
2023-04-15T20:22:44.679Z,49.13
2023-04-15T20:25:13.280Z,49.10
2023-04-15T20:27:42.016Z,49.17
2023-04-15T20:30:11.141Z,49.43
2023-04-15T20:32:39.404Z,49.18
2023-04-15T20:35:08.023Z,49.19
2023-04-15T20:37:37.283Z,49.31
2023-04-15T20:40:06.492Z,49.05
2023-04-15T20:42:34.784Z,49.12
2023-04-15T20:45:02.927Z,48.99
2023-04-15T20:47:31.545Z,48.99
2023-04-15T20:49:59.712Z,49.02
2023-04-15T20:52:27.838Z,49.03
2023-04-15T20:54:56.292Z,49.22
2023-04-15T20:57:28.823Z,49.26
2023-04-15T20:59:57.005Z,49.11
2023-04-15T21:02:25.234Z,49.03
2023-04-15T21:04:53.636Z,49.12
2023-04-15T21:07:21.874Z,49.09
2023-04-15T21:09:50.315Z,49.11
2023-04-15T21:12:18.359Z,49.08
2023-04-15T21:14:46.589Z,49.10
2023-04-15T21:17:14.735Z,49.03
2023-04-15T21:19:42.778Z,49.03
2023-04-15T21:22:10.888Z,49.12
2023-04-15T21:24:39.429Z,49.18
2023-04-15T21:27:07.477Z,49.17
2023-04-15T21:29:35.784Z,49.28
2023-04-15T21:32:03.788Z,49.17
2023-04-15T21:34:31.978Z,49.11
2023-04-15T21:37:00.305Z,49.12
2023-04-15T21:39:29.245Z,48.93
2023-04-15T21:43:29.035Z,51.95
2023-04-15T21:46:22.978Z,49.32
2023-04-15T21:48:46.374Z,48.76
2023-04-15T21:51:14.423Z,48.55
2023-04-15T21:53:43.767Z,48.33
2023-04-15T21:56:12.190Z,48.42
2023-04-15T21:58:40.224Z,48.15
2023-04-15T22:01:08.425Z,48.25
2023-04-15T22:03:37.293Z,48.19
2023-04-15T22:06:05.542Z,48.13
2023-04-15T22:08:41.715Z,48.28
2023-04-15T22:11:26.756Z,48.25
2023-04-15T22:13:55.216Z,48.26
2023-04-15T22:16:25.156Z,48.11
2023-04-15T22:18:54.293Z,48.21
2023-04-15T22:21:22.653Z,48.14
2023-04-15T22:23:51.265Z,48.20
2023-04-15T22:26:19.791Z,48.15
2023-04-15T22:28:48.233Z,48.10
2023-04-15T22:31:16.527Z,48.27
2023-04-15T22:33:44.899Z,48.22
2023-04-15T22:36:13.760Z,48.25
2023-04-15T22:38:41.802Z,48.24
2023-04-15T22:41:10.032Z,48.25
2023-04-15T22:43:38.368Z,48.28
2023-04-15T22:46:06.509Z,48.45
2023-04-15T22:48:35.568Z,48.60
2023-04-15T22:51:04.873Z,48.68
2023-04-15T22:53:34.007Z,48.81
2023-04-15T22:56:02.249Z,48.68
2023-04-15T22:58:32.160Z,48.62
2023-04-15T23:01:00.568Z,48.53
2023-04-15T23:03:29.158Z,48.58
2023-04-15T23:05:57.453Z,48.58
2023-04-15T23:08:26.206Z,48.47
2023-04-15T23:10:54.316Z,48.28
2023-04-15T23:13:22.764Z,48.34
2023-04-15T23:15:51.168Z,48.28
2023-04-15T23:18:20.464Z,48.28
2023-04-15T23:20:48.807Z,48.14
2023-04-15T23:23:17.665Z,48.13
2023-04-15T23:25:45.783Z,48.03
2023-04-15T23:28:13.917Z,47.94
2023-04-15T23:30:41.959Z,48.13
2023-04-15T23:33:11.545Z,48.28
2023-04-15T23:35:39.666Z,48.32
2023-04-15T23:38:10.251Z,48.44
2023-04-15T23:40:38.325Z,48.46
2023-04-15T23:43:06.519Z,48.30
2023-04-15T23:45:34.859Z,48.30
2023-04-15T23:48:03.401Z,48.30
2023-04-15T23:50:31.779Z,48.17
2023-04-15T23:53:00.037Z,48.22
2023-04-15T23:55:29.648Z,48.10
2023-04-15T23:57:57.805Z,48.03
